sensor_id;sensor_type;location;lat;lon;timestamp;temperature;humidity
9925;DHT22;5001;51.674;7.868;2023-05-07T00:02:02;14.90;1.00
9925;DHT22;5001;51.674;7.868;2023-05-07T00:04:30;14.90;1.00
9925;DHT22;5001;51.674;7.868;2023-05-07T00:07:03;14.90;1.00
9925;DHT22;5001;51.674;7.868;2023-05-07T00:09:30;14.80;1.00
9925;DHT22;5001;51.674;7.868;2023-05-07T00:11:57;14.80;1.00
9925;DHT22;5001;51.674;7.868;2023-05-07T00:14:24;14.90;1.00
9925;DHT22;5001;51.674;7.868;2023-05-07T00:16:51;14.80;1.00
9925;DHT22;5001;51.674;7.868;2023-05-07T00:19:18;14.70;1.00
9925;DHT22;5001;51.674;7.868;2023-05-07T00:21:45;14.70;1.00
9925;DHT22;5001;51.674;7.868;2023-05-07T00:24:13;14.80;1.00
9925;DHT22;5001;51.674;7.868;2023-05-07T00:26:40;14.70;1.00
9925;DHT22;5001;51.674;7.868;2023-05-07T00:29:07;14.70;1.00
9925;DHT22;5001;51.674;7.868;2023-05-07T00:31:34;14.80;1.00
9925;DHT22;5001;51.674;7.868;2023-05-07T00:34:02;14.80;1.00
9925;DHT22;5001;51.674;7.868;2023-05-07T00:36:29;14.80;1.00
9925;DHT22;5001;51.674;7.868;2023-05-07T00:38:58;14.70;1.00
9925;DHT22;5001;51.674;7.868;2023-05-07T00:41:26;14.60;1.00
9925;DHT22;5001;51.674;7.868;2023-05-07T00:43:53;14.60;1.00
9925;DHT22;5001;51.674;7.868;2023-05-07T00:46:21;14.60;1.00
9925;DHT22;5001;51.674;7.868;2023-05-07T00:48:52;14.60;1.00
9925;DHT22;5001;51.674;7.868;2023-05-07T00:51:19;14.70;1.00
9925;DHT22;5001;51.674;7.868;2023-05-07T00:53:47;14.60;1.00
9925;DHT22;5001;51.674;7.868;2023-05-07T00:56:14;14.70;1.00
9925;DHT22;5001;51.674;7.868;2023-05-07T00:58:42;14.80;1.00
9925;DHT22;5001;51.674;7.868;2023-05-07T01:01:09;14.90;1.00
9925;DHT22;5001;51.674;7.868;2023-05-07T01:03:36;14.90;1.00
9925;DHT22;5001;51.674;7.868;2023-05-07T01:06:05;15.00;1.00
9925;DHT22;5001;51.674;7.868;2023-05-07T01:08:34;14.90;1.00
9925;DHT22;5001;51.674;7.868;2023-05-07T01:11:02;15.00;1.00
9925;DHT22;5001;51.674;7.868;2023-05-07T01:13:30;15.00;1.00
9925;DHT22;5001;51.674;7.868;2023-05-07T01:15:57;15.10;1.00
9925;DHT22;5001;51.674;7.868;2023-05-07T01:18:25;15.00;1.00
9925;DHT22;5001;51.674;7.868;2023-05-07T01:20:58;14.80;1.00
9925;DHT22;5001;51.674;7.868;2023-05-07T01:23:27;14.80;1.00
9925;DHT22;5001;51.674;7.868;2023-05-07T01:25:54;14.80;1.00
9925;DHT22;5001;51.674;7.868;2023-05-07T01:28:24;14.60;1.00
9925;DHT22;5001;51.674;7.868;2023-05-07T01:30:59;14.60;1.00
9925;DHT22;5001;51.674;7.868;2023-05-07T01:33:30;14.50;1.00
9925;DHT22;5001;51.674;7.868;2023-05-07T01:35:59;14.50;1.00
9925;DHT22;5001;51.674;7.868;2023-05-07T01:38:29;14.40;1.00
9925;DHT22;5001;51.674;7.868;2023-05-07T01:40:57;14.30;1.00
9925;DHT22;5001;51.674;7.868;2023-05-07T01:43:25;14.30;1.00
9925;DHT22;5001;51.674;7.868;2023-05-07T01:45:52;14.20;1.00
9925;DHT22;5001;51.674;7.868;2023-05-07T01:48:20;14.20;1.00
9925;DHT22;5001;51.674;7.868;2023-05-07T01:50:48;14.20;1.00
9925;DHT22;5001;51.674;7.868;2023-05-07T01:53:16;14.20;1.00
9925;DHT22;5001;51.674;7.868;2023-05-07T01:55:43;14.20;1.00
9925;DHT22;5001;51.674;7.868;2023-05-07T01:58:10;14.30;1.00
9925;DHT22;5001;51.674;7.868;2023-05-07T02:00:37;14.30;1.00
9925;DHT22;5001;51.674;7.868;2023-05-07T02:03:05;14.40;1.00
9925;DHT22;5001;51.674;7.868;2023-05-07T02:05:40;14.30;1.00
9925;DHT22;5001;51.674;7.868;2023-05-07T02:08:15;14.30;1.00
9925;DHT22;5001;51.674;7.868;2023-05-07T02:10:42;14.20;1.00
9925;DHT22;5001;51.674;7.868;2023-05-07T02:13:09;14.20;1.00
9925;DHT22;5001;51.674;7.868;2023-05-07T02:15:36;14.10;1.00
9925;DHT22;5001;51.674;7.868;2023-05-07T02:18:05;14.10;1.00
9925;DHT22;5001;51.674;7.868;2023-05-07T02:20:33;14.10;1.00
9925;DHT22;5001;51.674;7.868;2023-05-07T02:23:00;14.20;1.00
9925;DHT22;5001;51.674;7.868;2023-05-07T02:25:29;14.20;1.00
9925;DHT22;5001;51.674;7.868;2023-05-07T02:27:57;14.20;1.00
9925;DHT22;5001;51.674;7.868;2023-05-07T02:30:37;14.20;1.00
9925;DHT22;5001;51.674;7.868;2023-05-07T02:33:04;14.10;1.00
9925;DHT22;5001;51.674;7.868;2023-05-07T02:35:33;14.10;1.00
9925;DHT22;5001;51.674;7.868;2023-05-07T02:38:01;14.10;1.00
9925;DHT22;5001;51.674;7.868;2023-05-07T02:40:29;14.00;1.00
9925;DHT22;5001;51.674;7.868;2023-05-07T02:42:56;14.00;1.00
9925;DHT22;5001;51.674;7.868;2023-05-07T02:45:24;14.00;1.00
9925;DHT22;5001;51.674;7.868;2023-05-07T02:47:53;13.90;1.00
9925;DHT22;5001;51.674;7.868;2023-05-07T02:50:20;13.90;1.00
9925;DHT22;5001;51.674;7.868;2023-05-07T02:52:47;13.80;1.00
9925;DHT22;5001;51.674;7.868;2023-05-07T02:55:15;13.90;1.00
9925;DHT22;5001;51.674;7.868;2023-05-07T02:57:42;13.90;1.00
9925;DHT22;5001;51.674;7.868;2023-05-07T03:00:14;13.90;1.00
9925;DHT22;5001;51.674;7.868;2023-05-07T03:02:48;13.80;1.00
9925;DHT22;5001;51.674;7.868;2023-05-07T03:05:15;13.80;1.00
9925;DHT22;5001;51.674;7.868;2023-05-07T03:07:42;13.80;1.00
9925;DHT22;5001;51.674;7.868;2023-05-07T03:10:13;13.80;1.00
9925;DHT22;5001;51.674;7.868;2023-05-07T03:12:40;13.80;1.00
9925;DHT22;5001;51.674;7.868;2023-05-07T03:15:09;13.80;1.00
9925;DHT22;5001;51.674;7.868;2023-05-07T03:17:37;13.80;1.00
9925;DHT22;5001;51.674;7.868;2023-05-07T03:20:06;13.70;1.00
9925;DHT22;5001;51.674;7.868;2023-05-07T03:22:34;13.70;1.00
9925;DHT22;5001;51.674;7.868;2023-05-07T03:25:02;13.70;1.00
9925;DHT22;5001;51.674;7.868;2023-05-07T03:27:29;13.60;1.00
9925;DHT22;5001;51.674;7.868;2023-05-07T03:29:56;13.60;1.00
9925;DHT22;5001;51.674;7.868;2023-05-07T03:32:24;13.60;1.00
9925;DHT22;5001;51.674;7.868;2023-05-07T03:34:52;13.60;1.00
9925;DHT22;5001;51.674;7.868;2023-05-07T03:37:20;13.70;1.00
9925;DHT22;5001;51.674;7.868;2023-05-07T03:39:48;13.70;1.00
9925;DHT22;5001;51.674;7.868;2023-05-07T03:42:16;13.70;1.00
9925;DHT22;5001;51.674;7.868;2023-05-07T03:44:44;13.70;1.00
9925;DHT22;5001;51.674;7.868;2023-05-07T03:47:12;13.70;1.00
9925;DHT22;5001;51.674;7.868;2023-05-07T03:49:40;13.70;1.00
9925;DHT22;5001;51.674;7.868;2023-05-07T03:52:07;13.70;1.00
9925;DHT22;5001;51.674;7.868;2023-05-07T03:54:35;13.70;1.00
9925;DHT22;5001;51.674;7.868;2023-05-07T03:57:03;13.70;1.00
9925;DHT22;5001;51.674;7.868;2023-05-07T03:59:30;13.70;1.00
9925;DHT22;5001;51.674;7.868;2023-05-07T04:01:58;13.70;1.00
9925;DHT22;5001;51.674;7.868;2023-05-07T04:04:28;13.70;1.00
9925;DHT22;5001;51.674;7.868;2023-05-07T04:07:00;13.70;1.00
9925;DHT22;5001;51.674;7.868;2023-05-07T04:09:28;13.70;1.00
9925;DHT22;5001;51.674;7.868;2023-05-07T04:11:56;13.70;1.00
9925;DHT22;5001;51.674;7.868;2023-05-07T04:14:23;13.70;1.00
9925;DHT22;5001;51.674;7.868;2023-05-07T04:16:52;13.70;1.00
9925;DHT22;5001;51.674;7.868;2023-05-07T04:19:19;13.80;1.00
9925;DHT22;5001;51.674;7.868;2023-05-07T04:21:49;13.70;1.00
9925;DHT22;5001;51.674;7.868;2023-05-07T04:24:16;13.70;1.00
9925;DHT22;5001;51.674;7.868;2023-05-07T04:26:45;14.00;1.00
9925;DHT22;5001;51.674;7.868;2023-05-07T04:29:12;14.30;1.00
9925;DHT22;5001;51.674;7.868;2023-05-07T04:31:40;14.60;1.00
9925;DHT22;5001;51.674;7.868;2023-05-07T04:34:08;14.70;1.00
9925;DHT22;5001;51.674;7.868;2023-05-07T04:36:35;14.80;1.00
9925;DHT22;5001;51.674;7.868;2023-05-07T04:39:09;14.80;1.00
9925;DHT22;5001;51.674;7.868;2023-05-07T04:41:39;14.60;1.00
9925;DHT22;5001;51.674;7.868;2023-05-07T04:44:07;14.80;1.00
9925;DHT22;5001;51.674;7.868;2023-05-07T04:46:36;14.80;1.00
9925;DHT22;5001;51.674;7.868;2023-05-07T04:49:03;14.80;1.00
9925;DHT22;5001;51.674;7.868;2023-05-07T04:51:30;14.90;1.00
9925;DHT22;5001;51.674;7.868;2023-05-07T04:53:59;14.70;1.00
9925;DHT22;5001;51.674;7.868;2023-05-07T04:56:29;14.70;1.00
9925;DHT22;5001;51.674;7.868;2023-05-07T04:59:00;14.40;1.00
9925;DHT22;5001;51.674;7.868;2023-05-07T05:01:28;14.40;1.00
9925;DHT22;5001;51.674;7.868;2023-05-07T05:03:56;14.60;1.00
9925;DHT22;5001;51.674;7.868;2023-05-07T05:06:23;14.80;1.00
9925;DHT22;5001;51.674;7.868;2023-05-07T05:08:51;14.90;1.00
9925;DHT22;5001;51.674;7.868;2023-05-07T05:11:18;14.80;1.00
9925;DHT22;5001;51.674;7.868;2023-05-07T05:13:45;14.70;1.00
9925;DHT22;5001;51.674;7.868;2023-05-07T05:16:18;14.80;1.00
9925;DHT22;5001;51.674;7.868;2023-05-07T05:18:47;14.90;1.00
9925;DHT22;5001;51.674;7.868;2023-05-07T05:21:17;14.90;1.00
9925;DHT22;5001;51.674;7.868;2023-05-07T05:23:47;14.90;1.00
9925;DHT22;5001;51.674;7.868;2023-05-07T05:26:18;14.90;1.00
9925;DHT22;5001;51.674;7.868;2023-05-07T05:28:45;15.10;1.00
9925;DHT22;5001;51.674;7.868;2023-05-07T05:31:13;15.40;1.00
9925;DHT22;5001;51.674;7.868;2023-05-07T05:33:41;15.60;1.00
9925;DHT22;5001;51.674;7.868;2023-05-07T05:36:11;15.70;1.00
9925;DHT22;5001;51.674;7.868;2023-05-07T05:38:40;15.80;1.00
9925;DHT22;5001;51.674;7.868;2023-05-07T05:41:09;15.80;1.00
9925;DHT22;5001;51.674;7.868;2023-05-07T05:43:36;15.80;1.00
9925;DHT22;5001;51.674;7.868;2023-05-07T05:46:04;15.80;1.00
9925;DHT22;5001;51.674;7.868;2023-05-07T05:48:32;15.70;1.00
9925;DHT22;5001;51.674;7.868;2023-05-07T05:51:01;15.60;1.00
9925;DHT22;5001;51.674;7.868;2023-05-07T05:53:28;15.60;1.00
9925;DHT22;5001;51.674;7.868;2023-05-07T05:55:55;15.80;1.00
9925;DHT22;5001;51.674;7.868;2023-05-07T05:58:23;15.90;1.00
9925;DHT22;5001;51.674;7.868;2023-05-07T06:00:56;15.80;1.00
9925;DHT22;5001;51.674;7.868;2023-05-07T06:03:25;15.90;1.00
9925;DHT22;5001;51.674;7.868;2023-05-07T06:05:54;16.20;1.00
9925;DHT22;5001;51.674;7.868;2023-05-07T06:08:21;17.00;1.00
9925;DHT22;5001;51.674;7.868;2023-05-07T06:10:49;17.20;1.00
9925;DHT22;5001;51.674;7.868;2023-05-07T06:13:16;17.30;1.00
9925;DHT22;5001;51.674;7.868;2023-05-07T06:15:43;17.30;1.00
9925;DHT22;5001;51.674;7.868;2023-05-07T06:18:12;17.50;1.00
9925;DHT22;5001;51.674;7.868;2023-05-07T06:20:40;17.30;1.00
9925;DHT22;5001;51.674;7.868;2023-05-07T06:23:14;16.70;1.00
9925;DHT22;5001;51.674;7.868;2023-05-07T06:25:48;16.60;1.00
9925;DHT22;5001;51.674;7.868;2023-05-07T06:28:18;16.40;1.00
9925;DHT22;5001;51.674;7.868;2023-05-07T06:30:45;16.20;1.00
9925;DHT22;5001;51.674;7.868;2023-05-07T06:33:16;16.00;1.00
9925;DHT22;5001;51.674;7.868;2023-05-07T06:35:43;16.00;1.00
9925;DHT22;5001;51.674;7.868;2023-05-07T06:38:10;15.90;1.00
9925;DHT22;5001;51.674;7.868;2023-05-07T06:40:40;16.00;1.00
9925;DHT22;5001;51.674;7.868;2023-05-07T06:43:07;16.00;1.00
9925;DHT22;5001;51.674;7.868;2023-05-07T06:45:54;16.10;1.00
9925;DHT22;5001;51.674;7.868;2023-05-07T06:48:22;16.20;1.00
9925;DHT22;5001;51.674;7.868;2023-05-07T06:50:56;16.40;1.00
9925;DHT22;5001;51.674;7.868;2023-05-07T06:53:25;16.30;1.00
9925;DHT22;5001;51.674;7.868;2023-05-07T06:55:54;16.70;1.00
9925;DHT22;5001;51.674;7.868;2023-05-07T06:58:22;17.10;1.00
9925;DHT22;5001;51.674;7.868;2023-05-07T07:00:49;17.20;1.00
9925;DHT22;5001;51.674;7.868;2023-05-07T07:03:16;17.20;1.00
9925;DHT22;5001;51.674;7.868;2023-05-07T07:05:44;17.30;1.00
9925;DHT22;5001;51.674;7.868;2023-05-07T07:08:12;16.90;1.00
9925;DHT22;5001;51.674;7.868;2023-05-07T07:10:39;16.60;1.00
9925;DHT22;5001;51.674;7.868;2023-05-07T07:13:07;16.80;1.00
9925;DHT22;5001;51.674;7.868;2023-05-07T07:15:34;17.00;1.00
9925;DHT22;5001;51.674;7.868;2023-05-07T07:18:01;16.90;1.00
9925;DHT22;5001;51.674;7.868;2023-05-07T07:20:28;17.00;1.00
9925;DHT22;5001;51.674;7.868;2023-05-07T07:22:55;17.00;1.00
9925;DHT22;5001;51.674;7.868;2023-05-07T07:25:22;17.00;1.00
9925;DHT22;5001;51.674;7.868;2023-05-07T07:27:50;17.20;1.00
9925;DHT22;5001;51.674;7.868;2023-05-07T07:30:18;17.30;1.00
9925;DHT22;5001;51.674;7.868;2023-05-07T07:32:47;17.50;1.00
9925;DHT22;5001;51.674;7.868;2023-05-07T07:35:15;17.50;1.00
9925;DHT22;5001;51.674;7.868;2023-05-07T07:37:43;17.60;1.00
9925;DHT22;5001;51.674;7.868;2023-05-07T07:40:12;17.60;1.00
9925;DHT22;5001;51.674;7.868;2023-05-07T07:42:40;17.40;1.00
9925;DHT22;5001;51.674;7.868;2023-05-07T07:45:08;17.50;1.00
9925;DHT22;5001;51.674;7.868;2023-05-07T07:47:40;17.70;1.00
9925;DHT22;5001;51.674;7.868;2023-05-07T07:50:08;17.90;1.00
9925;DHT22;5001;51.674;7.868;2023-05-07T07:52:36;17.90;1.00
9925;DHT22;5001;51.674;7.868;2023-05-07T07:55:03;17.80;1.00
9925;DHT22;5001;51.674;7.868;2023-05-07T07:57:31;17.70;1.00
9925;DHT22;5001;51.674;7.868;2023-05-07T07:59:59;17.90;1.00
9925;DHT22;5001;51.674;7.868;2023-05-07T08:02:31;17.90;1.00
9925;DHT22;5001;51.674;7.868;2023-05-07T08:04:58;18.40;1.00
9925;DHT22;5001;51.674;7.868;2023-05-07T08:07:25;18.70;1.00
9925;DHT22;5001;51.674;7.868;2023-05-07T08:09:52;19.50;1.00
9925;DHT22;5001;51.674;7.868;2023-05-07T08:12:22;19.50;1.00
9925;DHT22;5001;51.674;7.868;2023-05-07T08:14:49;18.90;1.00
9925;DHT22;5001;51.674;7.868;2023-05-07T08:17:17;19.20;1.00
9925;DHT22;5001;51.674;7.868;2023-05-07T08:19:45;19.90;1.00
9925;DHT22;5001;51.674;7.868;2023-05-07T08:22:14;19.60;1.00
9925;DHT22;5001;51.674;7.868;2023-05-07T08:24:41;19.30;1.00
9925;DHT22;5001;51.674;7.868;2023-05-07T08:27:08;19.70;1.00
9925;DHT22;5001;51.674;7.868;2023-05-07T08:29:37;20.30;1.00
9925;DHT22;5001;51.674;7.868;2023-05-07T08:32:04;20.40;1.00
9925;DHT22;5001;51.674;7.868;2023-05-07T08:34:31;21.00;1.00
9925;DHT22;5001;51.674;7.868;2023-05-07T08:37:01;21.40;1.00
9925;DHT22;5001;51.674;7.868;2023-05-07T08:39:31;22.30;1.00
9925;DHT22;5001;51.674;7.868;2023-05-07T08:42:00;22.70;1.00
9925;DHT22;5001;51.674;7.868;2023-05-07T08:44:33;22.20;1.00
9925;DHT22;5001;51.674;7.868;2023-05-07T08:47:03;23.20;1.00
9925;DHT22;5001;51.674;7.868;2023-05-07T08:49:34;24.00;1.00
9925;DHT22;5001;51.674;7.868;2023-05-07T08:52:01;24.70;1.00
9925;DHT22;5001;51.674;7.868;2023-05-07T08:54:29;24.00;1.00
9925;DHT22;5001;51.674;7.868;2023-05-07T08:56:57;24.60;1.00
9925;DHT22;5001;51.674;7.868;2023-05-07T08:59:26;25.90;1.00
9925;DHT22;5001;51.674;7.868;2023-05-07T09:01:53;26.60;1.00
9925;DHT22;5001;51.674;7.868;2023-05-07T09:04:20;25.90;1.00
9925;DHT22;5001;51.674;7.868;2023-05-07T09:06:47;25.40;1.00
9925;DHT22;5001;51.674;7.868;2023-05-07T09:09:17;24.20;1.00
9925;DHT22;5001;51.674;7.868;2023-05-07T09:11:46;22.70;1.00
9925;DHT22;5001;51.674;7.868;2023-05-07T09:14:21;23.40;1.00
9925;DHT22;5001;51.674;7.868;2023-05-07T09:16:56;24.80;1.00
9925;DHT22;5001;51.674;7.868;2023-05-07T09:19:24;24.00;1.00
9925;DHT22;5001;51.674;7.868;2023-05-07T09:22:04;24.00;1.00
9925;DHT22;5001;51.674;7.868;2023-05-07T09:24:50;26.20;1.00
9925;DHT22;5001;51.674;7.868;2023-05-07T09:27:21;25.80;1.00
9925;DHT22;5001;51.674;7.868;2023-05-07T09:29:49;26.00;1.00
9925;DHT22;5001;51.674;7.868;2023-05-07T09:32:16;26.50;1.00
9925;DHT22;5001;51.674;7.868;2023-05-07T09:34:44;25.50;1.00
9925;DHT22;5001;51.674;7.868;2023-05-07T09:37:13;25.10;1.00
9925;DHT22;5001;51.674;7.868;2023-05-07T09:39:44;25.00;1.00
9925;DHT22;5001;51.674;7.868;2023-05-07T09:42:14;23.90;1.00
9925;DHT22;5001;51.674;7.868;2023-05-07T09:44:44;23.90;1.00
9925;DHT22;5001;51.674;7.868;2023-05-07T09:47:20;24.50;1.00
9925;DHT22;5001;51.674;7.868;2023-05-07T09:49:55;24.50;1.00
9925;DHT22;5001;51.674;7.868;2023-05-07T09:52:24;22.90;1.00
9925;DHT22;5001;51.674;7.868;2023-05-07T09:54:55;22.00;1.00
9925;DHT22;5001;51.674;7.868;2023-05-07T09:57:26;21.60;1.00
9925;DHT22;5001;51.674;7.868;2023-05-07T09:59:59;21.90;1.00
9925;DHT22;5001;51.674;7.868;2023-05-07T10:02:35;23.50;1.00
9925;DHT22;5001;51.674;7.868;2023-05-07T10:05:04;24.90;1.00
9925;DHT22;5001;51.674;7.868;2023-05-07T10:07:34;24.70;1.00
9925;DHT22;5001;51.674;7.868;2023-05-07T10:10:06;25.30;1.00
9925;DHT22;5001;51.674;7.868;2023-05-07T10:12:38;24.60;1.00
9925;DHT22;5001;51.674;7.868;2023-05-07T10:15:13;24.20;1.00
9925;DHT22;5001;51.674;7.868;2023-05-07T10:17:45;23.70;1.00
9925;DHT22;5001;51.674;7.868;2023-05-07T10:20:14;23.30;1.00
9925;DHT22;5001;51.674;7.868;2023-05-07T10:22:47;23.40;1.00
9925;DHT22;5001;51.674;7.868;2023-05-07T10:25:27;23.50;1.00
9925;DHT22;5001;51.674;7.868;2023-05-07T10:28:01;23.70;1.00
9925;DHT22;5001;51.674;7.868;2023-05-07T10:33:41;24.70;1.00
9925;DHT22;5001;51.674;7.868;2023-05-07T10:36:09;25.10;1.00
9925;DHT22;5001;51.674;7.868;2023-05-07T10:38:38;25.30;1.00
9925;DHT22;5001;51.674;7.868;2023-05-07T10:41:07;25.60;1.00
9925;DHT22;5001;51.674;7.868;2023-05-07T10:43:40;26.40;1.00
9925;DHT22;5001;51.674;7.868;2023-05-07T10:46:19;25.70;1.00
9925;DHT22;5001;51.674;7.868;2023-05-07T10:49:07;26.40;1.00
9925;DHT22;5001;51.674;7.868;2023-05-07T10:52:15;25.50;1.00
9925;DHT22;5001;51.674;7.868;2023-05-07T10:57:47;24.90;1.00
9925;DHT22;5001;51.674;7.868;2023-05-07T11:03:06;25.80;1.00
9925;DHT22;5001;51.674;7.868;2023-05-07T11:05:43;24.80;1.00
9925;DHT22;5001;51.674;7.868;2023-05-07T11:08:23;24.60;1.00
9925;DHT22;5001;51.674;7.868;2023-05-07T11:11:02;24.80;1.00
9925;DHT22;5001;51.674;7.868;2023-05-07T11:16:18;25.60;1.00
9925;DHT22;5001;51.674;7.868;2023-05-07T11:18:51;25.10;1.00
9925;DHT22;5001;51.674;7.868;2023-05-07T11:21:40;25.00;1.00
9925;DHT22;5001;51.674;7.868;2023-05-07T11:24:40;24.90;1.00
9925;DHT22;5001;51.674;7.868;2023-05-07T11:27:11;24.80;1.00
9925;DHT22;5001;51.674;7.868;2023-05-07T11:29:38;25.20;1.00
9925;DHT22;5001;51.674;7.868;2023-05-07T11:32:09;25.90;1.00
9925;DHT22;5001;51.674;7.868;2023-05-07T11:34:42;25.60;1.00
9925;DHT22;5001;51.674;7.868;2023-05-07T11:37:12;24.90;1.00
9925;DHT22;5001;51.674;7.868;2023-05-07T11:40:06;24.60;1.00
9925;DHT22;5001;51.674;7.868;2023-05-07T11:42:37;25.40;1.00
9925;DHT22;5001;51.674;7.868;2023-05-07T11:45:07;24.60;1.00
9925;DHT22;5001;51.674;7.868;2023-05-07T11:47:37;25.40;1.00
9925;DHT22;5001;51.674;7.868;2023-05-07T11:50:09;25.20;1.00
9925;DHT22;5001;51.674;7.868;2023-05-07T11:52:38;24.90;1.00
9925;DHT22;5001;51.674;7.868;2023-05-07T11:55:07;23.40;1.00
9925;DHT22;5001;51.674;7.868;2023-05-07T11:57:37;23.20;1.00
9925;DHT22;5001;51.674;7.868;2023-05-07T12:00:05;23.20;1.00
9925;DHT22;5001;51.674;7.868;2023-05-07T12:02:43;23.20;1.00
9925;DHT22;5001;51.674;7.868;2023-05-07T12:05:12;23.50;1.00
9925;DHT22;5001;51.674;7.868;2023-05-07T12:07:41;23.80;1.00
9925;DHT22;5001;51.674;7.868;2023-05-07T12:10:13;24.60;1.00
9925;DHT22;5001;51.674;7.868;2023-05-07T12:12:41;24.40;1.00
9925;DHT22;5001;51.674;7.868;2023-05-07T12:15:10;24.00;1.00
9925;DHT22;5001;51.674;7.868;2023-05-07T12:17:38;23.80;1.00
9925;DHT22;5001;51.674;7.868;2023-05-07T12:20:07;24.40;1.00
9925;DHT22;5001;51.674;7.868;2023-05-07T12:22:36;24.50;1.00
9925;DHT22;5001;51.674;7.868;2023-05-07T12:25:04;24.00;1.00
9925;DHT22;5001;51.674;7.868;2023-05-07T12:27:31;23.20;1.00
9925;DHT22;5001;51.674;7.868;2023-05-07T12:29:59;23.20;1.00
9925;DHT22;5001;51.674;7.868;2023-05-07T12:32:26;23.00;1.00
9925;DHT22;5001;51.674;7.868;2023-05-07T12:34:53;23.30;1.00
9925;DHT22;5001;51.674;7.868;2023-05-07T12:37:24;23.00;1.00
9925;DHT22;5001;51.674;7.868;2023-05-07T12:40:10;23.00;1.00
9925;DHT22;5001;51.674;7.868;2023-05-07T12:42:39;23.50;1.00
9925;DHT22;5001;51.674;7.868;2023-05-07T12:47:37;23.70;1.00
9925;DHT22;5001;51.674;7.868;2023-05-07T12:50:08;24.00;1.00
9925;DHT22;5001;51.674;7.868;2023-05-07T12:52:35;24.50;1.00
9925;DHT22;5001;51.674;7.868;2023-05-07T12:55:06;23.90;1.00
9925;DHT22;5001;51.674;7.868;2023-05-07T12:57:42;23.40;1.00
9925;DHT22;5001;51.674;7.868;2023-05-07T13:00:10;23.50;1.00
9925;DHT22;5001;51.674;7.868;2023-05-07T13:02:39;23.10;1.00
9925;DHT22;5001;51.674;7.868;2023-05-07T13:05:07;23.20;1.00
9925;DHT22;5001;51.674;7.868;2023-05-07T13:07:35;23.10;1.00
9925;DHT22;5001;51.674;7.868;2023-05-07T13:10:04;22.70;1.00
9925;DHT22;5001;51.674;7.868;2023-05-07T13:12:34;22.50;1.00
9925;DHT22;5001;51.674;7.868;2023-05-07T13:15:01;22.80;1.00
9925;DHT22;5001;51.674;7.868;2023-05-07T13:17:29;22.80;1.00
9925;DHT22;5001;51.674;7.868;2023-05-07T13:19:58;22.90;1.00
9925;DHT22;5001;51.674;7.868;2023-05-07T13:22:25;22.50;1.00
9925;DHT22;5001;51.674;7.868;2023-05-07T13:24:52;22.40;1.00
9925;DHT22;5001;51.674;7.868;2023-05-07T13:27:21;22.40;1.00
9925;DHT22;5001;51.674;7.868;2023-05-07T13:29:48;22.50;1.00
9925;DHT22;5001;51.674;7.868;2023-05-07T13:32:15;22.60;1.00
9925;DHT22;5001;51.674;7.868;2023-05-07T13:34:42;22.60;1.00
9925;DHT22;5001;51.674;7.868;2023-05-07T13:37:09;22.70;1.00
9925;DHT22;5001;51.674;7.868;2023-05-07T13:39:39;22.90;1.00
9925;DHT22;5001;51.674;7.868;2023-05-07T13:42:06;22.40;1.00
9925;DHT22;5001;51.674;7.868;2023-05-07T13:44:33;22.30;1.00
9925;DHT22;5001;51.674;7.868;2023-05-07T13:47:01;22.00;1.00
9925;DHT22;5001;51.674;7.868;2023-05-07T13:49:29;21.90;1.00
9925;DHT22;5001;51.674;7.868;2023-05-07T13:51:56;21.90;1.00
9925;DHT22;5001;51.674;7.868;2023-05-07T13:54:23;22.00;1.00
9925;DHT22;5001;51.674;7.868;2023-05-07T13:56:50;22.00;1.00
9925;DHT22;5001;51.674;7.868;2023-05-07T13:59:17;22.00;1.00
9925;DHT22;5001;51.674;7.868;2023-05-07T14:01:44;21.90;1.00
9925;DHT22;5001;51.674;7.868;2023-05-07T14:04:11;22.00;1.00
9925;DHT22;5001;51.674;7.868;2023-05-07T14:06:38;21.90;1.00
9925;DHT22;5001;51.674;7.868;2023-05-07T14:09:06;21.90;1.00
9925;DHT22;5001;51.674;7.868;2023-05-07T14:11:33;22.00;1.00
9925;DHT22;5001;51.674;7.868;2023-05-07T14:14:02;22.10;1.00
9925;DHT22;5001;51.674;7.868;2023-05-07T14:16:29;21.80;1.00
9925;DHT22;5001;51.674;7.868;2023-05-07T14:18:56;21.90;1.00
9925;DHT22;5001;51.674;7.868;2023-05-07T14:21:24;21.80;1.00
9925;DHT22;5001;51.674;7.868;2023-05-07T14:23:51;21.90;1.00
9925;DHT22;5001;51.674;7.868;2023-05-07T14:26:20;22.00;1.00
9925;DHT22;5001;51.674;7.868;2023-05-07T14:28:47;21.60;1.00
9925;DHT22;5001;51.674;7.868;2023-05-07T14:31:14;21.50;1.00
9925;DHT22;5001;51.674;7.868;2023-05-07T14:33:42;21.30;1.00
9925;DHT22;5001;51.674;7.868;2023-05-07T14:36:09;21.30;1.00
9925;DHT22;5001;51.674;7.868;2023-05-07T14:38:36;21.50;1.00
9925;DHT22;5001;51.674;7.868;2023-05-07T14:41:03;21.30;1.00
9925;DHT22;5001;51.674;7.868;2023-05-07T14:43:30;21.30;1.00
9925;DHT22;5001;51.674;7.868;2023-05-07T14:45:58;21.30;1.00
9925;DHT22;5001;51.674;7.868;2023-05-07T14:48:25;21.30;1.00
9925;DHT22;5001;51.674;7.868;2023-05-07T14:50:52;21.50;1.00
9925;DHT22;5001;51.674;7.868;2023-05-07T14:53:19;21.20;1.00
9925;DHT22;5001;51.674;7.868;2023-05-07T14:55:48;21.30;1.00
9925;DHT22;5001;51.674;7.868;2023-05-07T14:58:15;21.20;1.00
9925;DHT22;5001;51.674;7.868;2023-05-07T15:00:42;21.20;1.00
9925;DHT22;5001;51.674;7.868;2023-05-07T15:03:10;21.10;1.00
9925;DHT22;5001;51.674;7.868;2023-05-07T15:05:40;21.20;1.00
9925;DHT22;5001;51.674;7.868;2023-05-07T15:08:08;21.20;1.00
9925;DHT22;5001;51.674;7.868;2023-05-07T15:10:37;21.30;1.00
9925;DHT22;5001;51.674;7.868;2023-05-07T15:13:09;21.30;1.00
9925;DHT22;5001;51.674;7.868;2023-05-07T15:15:42;21.30;1.00
9925;DHT22;5001;51.674;7.868;2023-05-07T15:18:10;21.20;1.00
9925;DHT22;5001;51.674;7.868;2023-05-07T15:20:37;21.10;1.00
9925;DHT22;5001;51.674;7.868;2023-05-07T15:23:06;21.20;1.00
9925;DHT22;5001;51.674;7.868;2023-05-07T15:25:37;21.20;1.00
9925;DHT22;5001;51.674;7.868;2023-05-07T15:28:04;21.10;1.00
9925;DHT22;5001;51.674;7.868;2023-05-07T15:30:31;20.60;1.00
9925;DHT22;5001;51.674;7.868;2023-05-07T15:32:58;20.10;1.00
9925;DHT22;5001;51.674;7.868;2023-05-07T15:35:25;20.20;1.00
9925;DHT22;5001;51.674;7.868;2023-05-07T15:37:53;19.80;1.00
9925;DHT22;5001;51.674;7.868;2023-05-07T15:40:21;19.60;1.00
9925;DHT22;5001;51.674;7.868;2023-05-07T15:42:48;19.70;1.00
9925;DHT22;5001;51.674;7.868;2023-05-07T15:45:15;19.80;1.00
9925;DHT22;5001;51.674;7.868;2023-05-07T15:47:42;19.80;1.00
9925;DHT22;5001;51.674;7.868;2023-05-07T15:50:09;19.70;1.00
9925;DHT22;5001;51.674;7.868;2023-05-07T15:52:37;19.40;1.00
9925;DHT22;5001;51.674;7.868;2023-05-07T15:55:05;19.60;1.00
9925;DHT22;5001;51.674;7.868;2023-05-07T15:57:33;19.80;1.00
9925;DHT22;5001;51.674;7.868;2023-05-07T16:00:00;19.80;1.00
9925;DHT22;5001;51.674;7.868;2023-05-07T16:02:37;19.80;1.00
9925;DHT22;5001;51.674;7.868;2023-05-07T16:05:07;20.00;1.00
9925;DHT22;5001;51.674;7.868;2023-05-07T16:07:37;20.00;1.00
9925;DHT22;5001;51.674;7.868;2023-05-07T16:10:04;20.10;1.00
9925;DHT22;5001;51.674;7.868;2023-05-07T16:12:34;20.10;1.00
9925;DHT22;5001;51.674;7.868;2023-05-07T16:15:01;20.00;1.00
9925;DHT22;5001;51.674;7.868;2023-05-07T16:17:28;19.90;1.00
9925;DHT22;5001;51.674;7.868;2023-05-07T16:19:56;19.90;1.00
9925;DHT22;5001;51.674;7.868;2023-05-07T16:22:25;19.90;1.00
9925;DHT22;5001;51.674;7.868;2023-05-07T16:24:52;19.90;1.00
9925;DHT22;5001;51.674;7.868;2023-05-07T16:27:22;19.90;1.00
9925;DHT22;5001;51.674;7.868;2023-05-07T16:29:49;19.90;1.00
9925;DHT22;5001;51.674;7.868;2023-05-07T16:32:16;19.90;1.00
9925;DHT22;5001;51.674;7.868;2023-05-07T16:34:43;19.90;1.00
9925;DHT22;5001;51.674;7.868;2023-05-07T16:37:10;19.90;1.00
9925;DHT22;5001;51.674;7.868;2023-05-07T16:39:37;20.10;1.00
9925;DHT22;5001;51.674;7.868;2023-05-07T16:42:04;20.20;1.00
9925;DHT22;5001;51.674;7.868;2023-05-07T16:44:33;20.20;1.00